Time;durP1;ratioP1;P1;durP2;ratioP2;P2;SDS_P1;SDS_P2;PMS_P1;PMS_P2;Temp;Humidity;BMP_temperature;BMP_pressure;BME280_temperature;BME280_humidity;BME280_pressure;Samples;Min_cycle;Max_cycle;Signal;HPM_P1;HPM_P2
2022/01/31 00:01:17;;;;;;;;;;;-0.20;99.90;;;;;;4965883;28;20308;-74
2022/01/31 00:03:43;;;;;;;;;;;-0.20;99.90;;;;;;4962252;28;19922;-74
2022/01/31 00:06:10;;;;;;;;;;;-0.20;99.90;;;;;;4959031;28;19926;-75
2022/01/31 00:08:37;;;;;;;;;;;-0.10;99.90;;;;;;4958800;28;20024;-75
2022/01/31 00:11:03;;;;;;;;;;;-0.10;99.90;;;;;;4968350;28;19922;-74
2022/01/31 00:13:36;;;;;;;;;;;-0.10;99.90;;;;;;4964609;28;19936;-75
2022/01/31 00:16:03;;;;;;;;;;;-0.10;99.90;;;;;;4958688;28;25056;-75
2022/01/31 00:18:30;;;;;;;;;;;-0.10;99.90;;;;;;4949735;28;19926;-75
2022/01/31 00:20:57;;;;;;;;;;;-0.10;99.90;;;;;;4962184;28;19928;-75
2022/01/31 00:23:24;;;;;;;;;;;-0.10;99.90;;;;;;4962344;28;19925;-75
2022/01/31 00:25:50;;;;;;;;;;;0.00;99.90;;;;;;4958364;28;19922;-75
2022/01/31 00:28:20;;;;;;;;;;;0.00;99.90;;;;;;4968844;28;20357;-75
2022/01/31 00:30:47;;;;;;;;;;;0.00;99.90;;;;;;4962654;28;19984;-74
2022/01/31 00:33:13;;;;;;;;;;;0.10;99.90;;;;;;4949922;28;19923;-75
2022/01/31 00:35:40;;;;;;;;;;;0.10;99.90;;;;;;4959331;28;20034;-74
2022/01/31 00:38:07;;;;;;;;;;;0.10;99.90;;;;;;4974059;28;20020;-75
2022/01/31 00:40:41;;;;;;;;;;;0.20;99.90;;;;;;4966778;28;20449;-74
2022/01/31 00:43:12;;;;;;;;;;;0.20;99.90;;;;;;4966140;28;19934;-75
2022/01/31 00:45:46;;;;;;;;;;;0.30;99.90;;;;;;4949571;28;19992;-75
2022/01/31 00:48:18;;;;;;;;;;;0.40;99.90;;;;;;4969259;28;20395;-74
2022/01/31 00:50:48;;;;;;;;;;;0.40;99.90;;;;;;4969269;28;20017;-75
2022/01/31 00:53:14;;;;;;;;;;;0.40;99.90;;;;;;4962026;28;19926;-75
2022/01/31 00:55:41;;;;;;;;;;;0.40;99.90;;;;;;4964586;28;19937;-74
2022/01/31 00:58:08;;;;;;;;;;;0.40;99.90;;;;;;4963128;28;20188;-76
2022/01/31 01:00:35;;;;;;;;;;;0.40;99.90;;;;;;4963348;28;19932;-75
2022/01/31 01:03:03;;;;;;;;;;;0.40;99.90;;;;;;4963037;28;19922;-75
2022/01/31 01:05:30;;;;;;;;;;;0.40;99.90;;;;;;4956453;28;20230;-76
2022/01/31 01:07:57;;;;;;;;;;;0.40;99.90;;;;;;4971675;28;19938;-75
2022/01/31 01:10:23;;;;;;;;;;;0.30;99.90;;;;;;4957219;28;20021;-75
2022/01/31 01:12:50;;;;;;;;;;;0.30;99.90;;;;;;4955311;28;19933;-75
2022/01/31 01:15:20;;;;;;;;;;;0.30;99.90;;;;;;4953460;28;19922;-75
2022/01/31 01:17:47;;;;;;;;;;;0.30;99.90;;;;;;4953049;28;19947;-75
2022/01/31 01:20:15;;;;;;;;;;;0.30;99.90;;;;;;4967845;28;20016;-75
2022/01/31 01:22:42;;;;;;;;;;;0.30;99.90;;;;;;4952805;28;20209;-75
2022/01/31 01:25:10;;;;;;;;;;;0.30;99.90;;;;;;5004591;28;19920;-75
2022/01/31 01:27:36;;;;;;;;;;;0.20;99.90;;;;;;4960681;28;19987;-75
2022/01/31 01:30:04;;;;;;;;;;;0.20;99.90;;;;;;4949657;28;19949;-75
2022/01/31 01:32:37;;;;;;;;;;;0.20;99.90;;;;;;4959859;28;20016;-75
2022/01/31 01:35:05;;;;;;;;;;;0.30;99.90;;;;;;4952853;28;19923;-75
2022/01/31 01:37:32;;;;;;;;;;;0.30;99.90;;;;;;4952615;28;19942;-75
2022/01/31 01:39:59;;;;;;;;;;;0.30;99.90;;;;;;4962510;28;19921;-75
2022/01/31 01:42:25;;;;;;;;;;;0.40;99.90;;;;;;4959403;28;20048;-75
2022/01/31 01:44:53;;;;;;;;;;;0.40;99.90;;;;;;4962403;28;19921;-75
2022/01/31 01:47:21;;;;;;;;;;;0.50;99.90;;;;;;4962643;28;19972;-75
2022/01/31 01:49:48;;;;;;;;;;;0.50;99.90;;;;;;4947830;28;19922;-75
2022/01/31 01:52:15;;;;;;;;;;;0.60;99.90;;;;;;4964496;28;19922;-75
2022/01/31 01:54:43;;;;;;;;;;;0.70;99.90;;;;;;4961805;28;19984;-75
2022/01/31 01:57:10;;;;;;;;;;;0.90;99.90;;;;;;4963577;28;20545;-75
2022/01/31 01:59:38;;;;;;;;;;;1.00;99.90;;;;;;4967148;28;19929;-75
2022/01/31 02:02:05;;;;;;;;;;;1.10;99.90;;;;;;4962708;28;19957;-75
2022/01/31 02:04:32;;;;;;;;;;;1.20;99.90;;;;;;4956941;28;19928;-75
2022/01/31 02:06:59;;;;;;;;;;;1.30;99.90;;;;;;4948812;28;19950;-75
2022/01/31 02:09:29;;;;;;;;;;;1.30;99.90;;;;;;4951031;28;19922;-75
2022/01/31 02:11:57;;;;;;;;;;;1.40;99.90;;;;;;4960091;28;20381;-75
2022/01/31 02:14:24;;;;;;;;;;;1.40;99.90;;;;;;4956937;28;19925;-75
2022/01/31 02:16:51;;;;;;;;;;;1.50;99.90;;;;;;4955957;28;20035;-75
2022/01/31 02:19:19;;;;;;;;;;;1.50;99.90;;;;;;4955226;28;19922;-75
2022/01/31 02:21:49;;;;;;;;;;;1.50;99.90;;;;;;4965810;28;19926;-75
2022/01/31 02:24:15;;;;;;;;;;;1.60;99.90;;;;;;4964172;28;19926;-75
2022/01/31 02:26:42;;;;;;;;;;;1.60;99.90;;;;;;4961567;28;20377;-75
2022/01/31 02:29:11;;;;;;;;;;;1.70;99.90;;;;;;4957012;28;19972;-75
2022/01/31 02:31:45;;;;;;;;;;;1.70;99.90;;;;;;4960862;28;19965;-75
2022/01/31 02:34:12;;;;;;;;;;;1.70;99.90;;;;;;4957046;28;19968;-75
2022/01/31 02:36:39;;;;;;;;;;;1.80;99.90;;;;;;4958254;28;19922;-75
2022/01/31 02:39:06;;;;;;;;;;;1.80;99.90;;;;;;4963974;28;20293;-75
2022/01/31 02:41:40;;;;;;;;;;;1.90;99.90;;;;;;4961530;28;19930;-75
2022/01/31 02:44:13;;;;;;;;;;;1.90;99.90;;;;;;4967058;28;19930;-75
2022/01/31 02:46:47;;;;;;;;;;;1.90;99.90;;;;;;4958240;28;19976;-75
2022/01/31 02:49:17;;;;;;;;;;;1.90;99.90;;;;;;4956015;28;19922;-75
2022/01/31 02:51:48;;;;;;;;;;;1.90;99.90;;;;;;4962238;28;19922;-75
2022/01/31 02:54:15;;;;;;;;;;;1.90;99.90;;;;;;4965503;28;19928;-75
2022/01/31 02:56:44;;;;;;;;;;;2.00;99.90;;;;;;4960703;28;19991;-75
2022/01/31 02:59:10;;;;;;;;;;;2.00;99.90;;;;;;4950617;28;20002;-75
2022/01/31 03:01:40;;;;;;;;;;;2.00;99.90;;;;;;4960699;28;19922;-75
2022/01/31 03:04:07;;;;;;;;;;;2.00;99.90;;;;;;4956651;28;19926;-75
2022/01/31 03:06:34;;;;;;;;;;;2.00;99.90;;;;;;4956877;28;20020;-75
2022/01/31 03:09:01;;;;;;;;;;;2.00;99.90;;;;;;4952639;28;19927;-75
2022/01/31 03:11:30;;;;;;;;;;;2.00;99.90;;;;;;4962055;28;19957;-75
2022/01/31 03:13:57;;;;;;;;;;;2.00;99.90;;;;;;4952824;28;19922;-76
2022/01/31 03:16:23;;;;;;;;;;;2.00;99.90;;;;;;4950603;28;19926;-75
2022/01/31 03:18:52;;;;;;;;;;;2.00;99.90;;;;;;4974561;28;20093;-75
2022/01/31 03:21:19;;;;;;;;;;;2.00;99.90;;;;;;4957072;28;19930;-76
2022/01/31 03:23:49;;;;;;;;;;;1.90;99.90;;;;;;4954283;28;19944;-76
2022/01/31 03:26:16;;;;;;;;;;;1.90;99.90;;;;;;4958421;28;19962;-75
2022/01/31 03:28:43;;;;;;;;;;;1.90;99.90;;;;;;4957312;28;19933;-75
2022/01/31 03:31:09;;;;;;;;;;;2.00;99.90;;;;;;4965317;28;20411;-76
2022/01/31 03:33:36;;;;;;;;;;;1.90;99.90;;;;;;4959538;28;19922;-75
2022/01/31 03:36:03;;;;;;;;;;;1.90;99.90;;;;;;4969052;28;19922;-75
2022/01/31 03:38:30;;;;;;;;;;;2.00;99.90;;;;;;4958549;28;19923;-75
2022/01/31 03:40:56;;;;;;;;;;;2.00;99.90;;;;;;4959132;28;19928;-75
2022/01/31 03:43:23;;;;;;;;;;;2.00;99.90;;;;;;4956495;28;19930;-75
2022/01/31 03:45:50;;;;;;;;;;;2.10;99.90;;;;;;4968390;28;19922;-75
2022/01/31 03:48:19;;;;;;;;;;;2.10;99.90;;;;;;4957081;28;19923;-75
2022/01/31 03:50:46;;;;;;;;;;;2.20;99.90;;;;;;4948193;28;19922;-75
2022/01/31 03:53:14;;;;;;;;;;;2.20;99.90;;;;;;4958153;28;20359;-75
2022/01/31 03:55:41;;;;;;;;;;;2.20;99.90;;;;;;4958069;28;20234;-75
2022/01/31 03:58:07;;;;;;;;;;;2.20;99.90;;;;;;4960821;28;19927;-75
2022/01/31 04:00:37;;;;;;;;;;;2.20;99.90;;;;;;4964848;28;19923;-75
2022/01/31 04:03:04;;;;;;;;;;;2.30;99.90;;;;;;4960385;28;19922;-75
2022/01/31 04:05:31;;;;;;;;;;;2.30;99.90;;;;;;4960324;28;19926;-75
2022/01/31 04:07:58;;;;;;;;;;;2.40;99.90;;;;;;4953534;28;19922;-75
2022/01/31 04:10:26;;;;;;;;;;;2.40;99.90;;;;;;4959341;28;19976;-75
2022/01/31 04:12:53;;;;;;;;;;;2.40;99.90;;;;;;4954392;28;19922;-75
2022/01/31 04:15:20;;;;;;;;;;;2.40;99.90;;;;;;4960380;28;19929;-75
2022/01/31 04:17:46;;;;;;;;;;;2.50;99.90;;;;;;4957197;28;19929;-75
2022/01/31 04:20:14;;;;;;;;;;;2.50;99.90;;;;;;4957699;28;19922;-75
2022/01/31 04:22:51;;;;;;;;;;;2.60;99.90;;;;;;4953263;28;19926;-75
2022/01/31 04:25:29;;;;;;;;;;;2.60;99.90;;;;;;4963867;28;19926;-75
2022/01/31 04:28:04;;;;;;;;;;;2.60;99.90;;;;;;4981032;28;19930;-76
2022/01/31 04:30:32;;;;;;;;;;;2.70;99.90;;;;;;4970106;28;20008;-75
2022/01/31 04:32:59;;;;;;;;;;;2.70;99.90;;;;;;5016164;28;19974;-75
2022/01/31 04:35:25;;;;;;;;;;;2.70;99.90;;;;;;4986463;28;19922;-75
2022/01/31 04:37:52;;;;;;;;;;;2.70;99.90;;;;;;5019168;28;20581;-75
2022/01/31 04:40:19;;;;;;;;;;;2.70;99.90;;;;;;5010645;28;19921;-75
2022/01/31 04:42:46;;;;;;;;;;;2.80;99.90;;;;;;5000855;28;20351;-75
2022/01/31 04:45:13;;;;;;;;;;;2.80;99.90;;;;;;5014765;28;19932;-75
2022/01/31 04:47:40;;;;;;;;;;;2.80;99.90;;;;;;5011738;28;19997;-75
2022/01/31 04:50:07;;;;;;;;;;;2.80;99.90;;;;;;4964296;28;19930;-76
2022/01/31 04:52:34;;;;;;;;;;;2.80;99.90;;;;;;4995879;28;20024;-75
2022/01/31 04:55:04;;;;;;;;;;;2.80;99.90;;;;;;5010704;28;20127;-75
2022/01/31 04:57:31;;;;;;;;;;;2.80;99.90;;;;;;4955042;28;20385;-76
2022/01/31 04:59:58;;;;;;;;;;;2.70;99.90;;;;;;4965320;28;19923;-76
2022/01/31 05:02:25;;;;;;;;;;;2.70;99.90;;;;;;4963843;28;20008;-76
2022/01/31 05:04:52;;;;;;;;;;;2.70;99.90;;;;;;4952571;28;20265;-76
2022/01/31 05:07:21;;;;;;;;;;;2.70;99.90;;;;;;4968942;28;19922;-76
2022/01/31 05:09:48;;;;;;;;;;;2.60;99.90;;;;;;4965490;28;19928;-75
2022/01/31 05:12:14;;;;;;;;;;;2.60;99.90;;;;;;4994350;28;19965;-76
2022/01/31 05:14:41;;;;;;;;;;;2.50;99.90;;;;;;4966005;28;19922;-76
2022/01/31 05:17:08;;;;;;;;;;;2.50;99.90;;;;;;4957433;28;19930;-76
2022/01/31 05:19:35;;;;;;;;;;;2.50;99.90;;;;;;4966996;28;20298;-76
2022/01/31 05:22:01;;;;;;;;;;;2.50;99.90;;;;;;4963228;28;20017;-76
2022/01/31 05:24:31;;;;;;;;;;;2.50;99.90;;;;;;4962043;28;19922;-76
2022/01/31 05:26:58;;;;;;;;;;;2.50;99.90;;;;;;4962309;28;20422;-76
2022/01/31 05:29:25;;;;;;;;;;;2.50;99.90;;;;;;4965661;28;19922;-76
2022/01/31 05:31:53;;;;;;;;;;;2.50;99.90;;;;;;4950999;28;20016;-77
2022/01/31 05:34:20;;;;;;;;;;;2.50;99.90;;;;;;4961686;28;19930;-77
2022/01/31 05:36:47;;;;;;;;;;;2.40;99.90;;;;;;4964582;28;19928;-76
2022/01/31 05:39:14;;;;;;;;;;;2.40;99.90;;;;;;4978203;28;20171;-77
2022/01/31 05:41:41;;;;;;;;;;;2.40;99.90;;;;;;4963352;28;19926;-77
2022/01/31 05:44:10;;;;;;;;;;;2.40;99.90;;;;;;4960150;28;19983;-76
2022/01/31 05:46:37;;;;;;;;;;;2.40;99.90;;;;;;4947682;28;19922;-76
2022/01/31 05:49:04;;;;;;;;;;;2.40;99.90;;;;;;4983497;28;19922;-77
2022/01/31 05:51:30;;;;;;;;;;;2.40;99.90;;;;;;4951229;28;19922;-77
2022/01/31 05:53:57;;;;;;;;;;;2.40;99.90;;;;;;4969255;28;19926;-75
2022/01/31 05:56:24;;;;;;;;;;;2.50;99.90;;;;;;4914892;28;20273;-75
2022/01/31 05:58:51;;;;;;;;;;;2.50;99.90;;;;;;4947455;28;19930;-75
2022/01/31 06:01:18;;;;;;;;;;;2.50;99.90;;;;;;5003576;28;19951;-75
2022/01/31 06:03:45;;;;;;;;;;;2.50;99.90;;;;;;4963414;28;19937;-76
2022/01/31 06:06:11;;;;;;;;;;;2.60;99.90;;;;;;4963333;28;19922;-76
2022/01/31 06:08:38;;;;;;;;;;;2.60;99.90;;;;;;4962172;28;19922;-76
2022/01/31 06:11:05;;;;;;;;;;;2.60;99.90;;;;;;4961187;28;20400;-76
2022/01/31 06:13:33;;;;;;;;;;;2.60;99.90;;;;;;4962471;28;19929;-76
2022/01/31 06:16:00;;;;;;;;;;;2.60;99.90;;;;;;4961272;28;19925;-76
2022/01/31 06:18:27;;;;;;;;;;;2.60;99.90;;;;;;4963349;28;19929;-76
2022/01/31 06:20:54;;;;;;;;;;;2.60;99.90;;;;;;4988853;28;20303;-76
2022/01/31 06:23:20;;;;;;;;;;;2.60;99.90;;;;;;4997677;28;20292;-76
2022/01/31 06:25:48;;;;;;;;;;;2.60;99.90;;;;;;4964475;28;19921;-75
2022/01/31 06:28:15;;;;;;;;;;;2.60;99.90;;;;;;4965968;28;19922;-76
2022/01/31 06:30:44;;;;;;;;;;;2.60;99.90;;;;;;4971346;28;19922;-75
2022/01/31 06:33:15;;;;;;;;;;;2.60;99.90;;;;;;4958855;28;19930;-75
2022/01/31 06:35:45;;;;;;;;;;;2.60;99.90;;;;;;4962345;28;19930;-75
2022/01/31 06:38:12;;;;;;;;;;;2.60;99.90;;;;;;4967754;28;20012;-75
2022/01/31 06:40:39;;;;;;;;;;;2.50;99.90;;;;;;4958167;28;19926;-75
2022/01/31 06:43:06;;;;;;;;;;;2.50;99.90;;;;;;4961929;28;19965;-75
2022/01/31 06:45:32;;;;;;;;;;;2.50;99.90;;;;;;4968793;28;19932;-75
2022/01/31 06:48:04;;;;;;;;;;;2.50;99.90;;;;;;4956299;28;20049;-75
2022/01/31 06:50:30;;;;;;;;;;;2.60;99.90;;;;;;4962282;28;20251;-75
2022/01/31 06:52:57;;;;;;;;;;;2.50;99.90;;;;;;4978145;28;19922;-75
2022/01/31 06:55:28;;;;;;;;;;;2.50;99.90;;;;;;4967663;28;19926;-76
2022/01/31 06:57:55;;;;;;;;;;;2.40;99.90;;;;;;4969428;28;19922;-76
2022/01/31 07:00:22;;;;;;;;;;;2.40;99.90;;;;;;4966852;28;19932;-75
2022/01/31 07:02:52;;;;;;;;;;;2.40;99.90;;;;;;4961799;28;19922;-75
2022/01/31 07:05:19;;;;;;;;;;;2.40;99.90;;;;;;4969017;28;19922;-75
2022/01/31 07:07:46;;;;;;;;;;;2.50;99.90;;;;;;4964504;28;19922;-75
2022/01/31 07:10:13;;;;;;;;;;;2.40;99.90;;;;;;4986867;28;19936;-76
2022/01/31 07:12:41;;;;;;;;;;;2.40;99.90;;;;;;4966458;28;19928;-76
2022/01/31 07:15:09;;;;;;;;;;;2.30;99.90;;;;;;4962461;28;19922;-76
2022/01/31 07:17:38;;;;;;;;;;;2.20;99.90;;;;;;4961663;28;20378;-77
2022/01/31 07:20:09;;;;;;;;;;;2.10;99.90;;;;;;4971899;28;19930;-76
2022/01/31 07:22:38;;;;;;;;;;;2.10;99.90;;;;;;4964610;28;19929;-77
2022/01/31 07:25:08;;;;;;;;;;;2.10;99.90;;;;;;4964984;28;19922;-76
2022/01/31 07:27:38;;;;;;;;;;;2.20;99.90;;;;;;4964237;28;19922;-76
2022/01/31 07:30:05;;;;;;;;;;;2.30;99.90;;;;;;4964287;28;19922;-76
2022/01/31 07:32:40;;;;;;;;;;;2.30;99.90;;;;;;4962011;28;19923;-76
2022/01/31 07:35:08;;;;;;;;;;;2.30;99.90;;;;;;4995400;28;20357;-76
2022/01/31 07:37:35;;;;;;;;;;;2.30;99.90;;;;;;4961220;28;20307;-76
2022/01/31 07:40:05;;;;;;;;;;;2.30;99.90;;;;;;4968373;28;19922;-76
2022/01/31 07:42:31;;;;;;;;;;;2.50;99.90;;;;;;4964760;28;19930;-76
2022/01/31 07:44:58;;;;;;;;;;;2.70;99.90;;;;;;4979133;28;19922;-76
2022/01/31 07:47:38;;;;;;;;;;;2.90;99.90;;;;;;4962167;28;20309;-77
2022/01/31 07:50:05;;;;;;;;;;;2.90;99.90;;;;;;4978383;28;19930;-76
2022/01/31 07:52:34;;;;;;;;;;;3.00;99.90;;;;;;4960648;28;19926;-76
2022/01/31 07:55:01;;;;;;;;;;;3.10;99.90;;;;;;4967838;28;19937;-76
2022/01/31 07:57:28;;;;;;;;;;;3.20;99.90;;;;;;4963363;28;19922;-76
2022/01/31 08:00:00;;;;;;;;;;;3.40;99.90;;;;;;4964208;28;19922;-76
2022/01/31 08:02:27;;;;;;;;;;;3.60;99.90;;;;;;4966665;28;20442;-76
2022/01/31 08:04:55;;;;;;;;;;;3.50;99.90;;;;;;4970637;28;19996;-76
2022/01/31 08:07:22;;;;;;;;;;;3.50;99.90;;;;;;4963641;28;19928;-76
2022/01/31 08:09:49;;;;;;;;;;;3.40;99.90;;;;;;4963470;28;19922;-76
2022/01/31 08:12:16;;;;;;;;;;;3.40;99.90;;;;;;4967101;28;20025;-76
2022/01/31 08:14:44;;;;;;;;;;;3.40;99.90;;;;;;4979590;28;19967;-76
2022/01/31 08:17:11;;;;;;;;;;;3.40;99.90;;;;;;5011536;28;20221;-76
2022/01/31 08:19:43;;;;;;;;;;;3.40;99.90;;;;;;4967578;28;19922;-76
2022/01/31 08:22:10;;;;;;;;;;;3.40;99.90;;;;;;4965296;28;20284;-76
2022/01/31 08:24:37;;;;;;;;;;;3.40;99.90;;;;;;4969392;28;20016;-76
2022/01/31 08:27:03;;;;;;;;;;;3.40;99.90;;;;;;4964721;28;19922;-75
2022/01/31 08:29:35;;;;;;;;;;;3.50;99.90;;;;;;4971854;28;19922;-75
2022/01/31 08:32:14;;;;;;;;;;;3.50;99.90;;;;;;4978875;28;20392;-75
2022/01/31 08:37:27;;;;;;;;;;;3.40;99.90;;;;;;4980689;28;19926;-75
2022/01/31 08:39:54;;;;;;;;;;;3.40;99.90;;;;;;4961246;28;20402;-76
2022/01/31 08:42:21;;;;;;;;;;;3.50;99.90;;;;;;4966054;28;20365;-75
2022/01/31 08:44:48;;;;;;;;;;;3.70;99.90;;;;;;4964694;28;19929;-76
2022/01/31 08:47:14;;;;;;;;;;;3.80;99.90;;;;;;4955599;28;19922;-76
2022/01/31 08:49:42;;;;;;;;;;;4.00;99.90;;;;;;4963586;28;19987;-76
2022/01/31 08:52:09;;;;;;;;;;;4.10;99.90;;;;;;4959676;28;19929;-75
2022/01/31 08:54:36;;;;;;;;;;;4.20;99.90;;;;;;4960591;28;20597;-75
2022/01/31 08:57:02;;;;;;;;;;;4.20;99.90;;;;;;4979224;28;19926;-76
2022/01/31 08:59:32;;;;;;;;;;;4.20;99.90;;;;;;4960426;28;19922;-76
2022/01/31 09:02:07;;;;;;;;;;;4.20;99.90;;;;;;4962320;28;19936;-75
2022/01/31 09:04:41;;;;;;;;;;;4.40;99.90;;;;;;4963291;28;20331;-75
2022/01/31 09:07:08;;;;;;;;;;;4.40;99.90;;;;;;4962491;28;19922;-75
2022/01/31 09:09:34;;;;;;;;;;;4.40;99.90;;;;;;4970347;28;19922;-76
2022/01/31 09:12:05;;;;;;;;;;;4.60;99.90;;;;;;4960525;28;19930;-75
2022/01/31 09:14:32;;;;;;;;;;;4.70;99.90;;;;;;4963448;28;19921;-75
2022/01/31 09:16:59;;;;;;;;;;;4.70;99.90;;;;;;4963127;28;20025;-75
2022/01/31 09:19:28;;;;;;;;;;;4.80;99.90;;;;;;4965690;28;19929;-75
2022/01/31 09:21:59;;;;;;;;;;;4.80;99.90;;;;;;4962091;28;19929;-75
2022/01/31 09:24:26;;;;;;;;;;;4.90;99.90;;;;;;4959485;28;20326;-75
2022/01/31 09:26:52;;;;;;;;;;;4.80;99.90;;;;;;4972633;28;19930;-75
2022/01/31 09:29:19;;;;;;;;;;;4.70;99.90;;;;;;4994709;28;20264;-75
2022/01/31 09:31:46;;;;;;;;;;;4.80;99.90;;;;;;4959715;28;19922;-75
2022/01/31 09:34:13;;;;;;;;;;;4.90;99.90;;;;;;4959836;28;19926;-75
2022/01/31 09:36:39;;;;;;;;;;;4.90;99.90;;;;;;4966419;28;20005;-76
2022/01/31 09:39:07;;;;;;;;;;;5.00;99.90;;;;;;4964638;28;20452;-76
2022/01/31 09:41:35;;;;;;;;;;;5.10;99.90;;;;;;4962719;28;19928;-75
2022/01/31 09:44:19;;;;;;;;;;;5.10;99.90;;;;;;4968121;28;19930;-75
2022/01/31 09:46:53;;;;;;;;;;;5.20;99.90;;;;;;4968753;28;20017;-76
2022/01/31 09:49:22;;;;;;;;;;;5.40;99.90;;;;;;4958158;28;19928;-75
2022/01/31 09:51:49;;;;;;;;;;;5.60;99.90;;;;;;4963750;28;19980;-75
2022/01/31 09:54:16;;;;;;;;;;;5.70;99.90;;;;;;4963393;28;19933;-76
2022/01/31 09:56:44;;;;;;;;;;;5.60;99.90;;;;;;4959314;28;20180;-75
2022/01/31 09:59:12;;;;;;;;;;;5.40;99.90;;;;;;4959439;28;20001;-76
2022/01/31 10:02:01;;;;;;;;;;;5.10;99.90;;;;;;4957615;28;20436;-75
2022/01/31 10:04:35;;;;;;;;;;;5.10;99.90;;;;;;4955745;28;20223;-75
2022/01/31 10:07:03;;;;;;;;;;;5.10;99.90;;;;;;4961782;28;20395;-76
2022/01/31 10:09:31;;;;;;;;;;;5.20;99.90;;;;;;4972177;28;19926;-76
2022/01/31 10:12:20;;;;;;;;;;;5.30;99.90;;;;;;4983227;28;19923;-76
2022/01/31 10:17:36;;;;;;;;;;;5.40;99.90;;;;;;4964869;28;19937;-76
2022/01/31 10:20:18;;;;;;;;;;;5.60;99.90;;;;;;4966456;28;19933;-76
2022/01/31 10:22:47;;;;;;;;;;;5.80;99.90;;;;;;4962197;28;20017;-76
2022/01/31 10:25:16;;;;;;;;;;;6.00;99.90;;;;;;4976811;28;19929;-76
2022/01/31 10:28:09;;;;;;;;;;;6.20;99.90;;;;;;4976479;28;20389;-76
2022/01/31 10:30:39;;;;;;;;;;;6.30;99.90;;;;;;4987726;28;20296;-76
2022/01/31 10:33:07;;;;;;;;;;;6.50;99.90;;;;;;4988365;28;19929;-76
2022/01/31 10:35:34;;;;;;;;;;;6.40;99.90;;;;;;4964029;28;19967;-75
2022/01/31 10:38:07;;;;;;;;;;;6.30;99.90;;;;;;4988179;28;19965;-76
2022/01/31 10:46:08;;;;;;;;;;;5.90;99.90;;;;;;4965004;28;20405;-76
2022/01/31 10:56:50;;;;;;;;;;;5.40;99.90;;;;;;4965894;28;19930;-76
2022/01/31 10:59:19;;;;;;;;;;;5.60;99.90;;;;;;4968351;28;19926;-76
2022/01/31 11:01:49;;;;;;;;;;;6.00;99.90;;;;;;4977992;28;20287;-76
2022/01/31 11:04:31;;;;;;;;;;;6.30;99.90;;;;;;4966653;28;19929;-78
2022/01/31 11:07:00;;;;;;;;;;;6.40;99.90;;;;;;4972082;28;20199;-76
2022/01/31 11:09:29;;;;;;;;;;;6.50;99.90;;;;;;4962679;28;19929;-76
2022/01/31 11:11:55;;;;;;;;;;;6.60;99.90;;;;;;4983258;28;19929;-76
2022/01/31 11:14:22;;;;;;;;;;;6.40;99.90;;;;;;4964235;28;19922;-76
2022/01/31 11:16:54;;;;;;;;;;;6.20;99.90;;;;;;4972004;28;20024;-76
2022/01/31 11:19:29;;;;;;;;;;;6.00;99.90;;;;;;4957134;28;19937;-76
2022/01/31 11:22:00;;;;;;;;;;;5.80;99.90;;;;;;4962541;28;19930;-76
2022/01/31 11:24:31;;;;;;;;;;;5.70;99.90;;;;;;4965211;28;19928;-75
2022/01/31 11:27:00;;;;;;;;;;;5.60;99.90;;;;;;4968728;28;19926;-76
2022/01/31 11:29:27;;;;;;;;;;;5.60;99.90;;;;;;4976411;28;20392;-76
2022/01/31 11:31:54;;;;;;;;;;;5.50;99.90;;;;;;4966532;28;19929;-75
2022/01/31 11:34:22;;;;;;;;;;;5.40;99.90;;;;;;4962899;28;20083;-76
2022/01/31 11:36:50;;;;;;;;;;;5.20;99.90;;;;;;5001978;28;20391;-76
2022/01/31 11:39:16;;;;;;;;;;;5.10;99.90;;;;;;4984747;28;19922;-74
2022/01/31 11:41:45;;;;;;;;;;;5.00;99.90;;;;;;4967711;28;20304;-76
2022/01/31 11:44:18;;;;;;;;;;;4.90;99.90;;;;;;4957850;28;19926;-75
2022/01/31 11:46:45;;;;;;;;;;;4.80;99.90;;;;;;4959350;28;19933;-75
2022/01/31 11:49:13;;;;;;;;;;;4.80;99.90;;;;;;4960435;28;19930;-76
2022/01/31 11:51:58;;;;;;;;;;;4.70;99.90;;;;;;4966638;28;19922;-75
2022/01/31 11:54:25;;;;;;;;;;;4.70;99.90;;;;;;4994781;28;20019;-76
2022/01/31 11:56:53;;;;;;;;;;;4.60;99.90;;;;;;4964050;28;20292;-76
2022/01/31 11:59:21;;;;;;;;;;;4.60;99.90;;;;;;4970598;28;19930;-76
2022/01/31 12:01:49;;;;;;;;;;;4.60;99.90;;;;;;4954074;28;19926;-76
2022/01/31 12:04:20;;;;;;;;;;;4.60;99.90;;;;;;4981290;28;19922;-76
2022/01/31 12:06:47;;;;;;;;;;;4.60;99.90;;;;;;4985029;28;19926;-76
2022/01/31 12:09:16;;;;;;;;;;;4.50;99.90;;;;;;4963746;28;20410;-74
2022/01/31 12:11:55;;;;;;;;;;;4.50;99.90;;;;;;4963349;28;19991;-75
2022/01/31 12:14:26;;;;;;;;;;;4.60;99.90;;;;;;4967511;28;20010;-75
2022/01/31 12:17:21;;;;;;;;;;;4.60;99.90;;;;;;4964239;28;20495;-75
2022/01/31 12:19:49;;;;;;;;;;;4.80;99.90;;;;;;4967342;28;19932;-74
2022/01/31 12:22:34;;;;;;;;;;;4.80;99.90;;;;;;4965738;28;19926;-74
2022/01/31 12:25:19;;;;;;;;;;;4.80;99.90;;;;;;4956708;28;19936;-77
2022/01/31 12:27:46;;;;;;;;;;;4.80;99.90;;;;;;4977172;28;20044;-75
2022/01/31 12:30:28;;;;;;;;;;;4.80;99.90;;;;;;4958203;28;20375;-75
2022/01/31 12:32:57;;;;;;;;;;;4.80;99.90;;;;;;4969425;28;19922;-75
2022/01/31 12:35:30;;;;;;;;;;;4.80;99.90;;;;;;4965834;28;19941;-75
2022/01/31 12:37:57;;;;;;;;;;;4.70;99.90;;;;;;4975005;28;19922;-74
2022/01/31 12:40:40;;;;;;;;;;;4.80;99.90;;;;;;4977798;28;19925;-75
2022/01/31 12:43:47;;;;;;;;;;;4.80;99.90;;;;;;4962045;28;20358;-76
2022/01/31 12:46:14;;;;;;;;;;;4.90;99.90;;;;;;4961659;28;20017;-75
2022/01/31 12:49:04;;;;;;;;;;;5.00;99.90;;;;;;4978671;28;19925;-75
2022/01/31 12:51:30;;;;;;;;;;;5.10;99.90;;;;;;4967439;28;19926;-76
2022/01/31 12:53:58;;;;;;;;;;;5.00;99.90;;;;;;4980702;28;19936;-75
2022/01/31 12:56:29;;;;;;;;;;;5.00;99.90;;;;;;4984355;28;19926;-76
2022/01/31 12:59:12;;;;;;;;;;;5.00;99.90;;;;;;4987206;28;19929;-75
2022/01/31 13:01:40;;;;;;;;;;;5.00;99.90;;;;;;4963559;28;19922;-75
2022/01/31 13:04:15;;;;;;;;;;;5.10;99.90;;;;;;4963494;28;19972;-76
2022/01/31 13:06:45;;;;;;;;;;;5.10;99.90;;;;;;4969113;28;19990;-77
2022/01/31 13:09:20;;;;;;;;;;;5.20;99.90;;;;;;4958131;28;19972;-75
2022/01/31 13:11:48;;;;;;;;;;;5.20;99.90;;;;;;4968521;28;20302;-75
2022/01/31 13:14:23;;;;;;;;;;;5.30;99.90;;;;;;4976256;28;19961;-75
2022/01/31 13:17:10;;;;;;;;;;;5.30;99.90;;;;;;5006501;28;20351;-75
2022/01/31 13:19:38;;;;;;;;;;;5.30;99.90;;;;;;4982171;28;19922;-75
2022/01/31 13:22:08;;;;;;;;;;;5.20;99.90;;;;;;4971695;28;19929;-75
2022/01/31 13:24:39;;;;;;;;;;;5.20;99.90;;;;;;4961976;28;19926;-77
2022/01/31 13:27:07;;;;;;;;;;;5.20;99.90;;;;;;4975114;28;19978;-76
2022/01/31 13:29:55;;;;;;;;;;;5.00;99.90;;;;;;4964056;28;20010;-76
2022/01/31 13:32:28;;;;;;;;;;;4.90;99.90;;;;;;4959852;28;20261;-75
2022/01/31 13:34:59;;;;;;;;;;;4.70;99.90;;;;;;4977382;28;19956;-76
2022/01/31 13:37:32;;;;;;;;;;;4.50;99.90;;;;;;4969020;28;19926;-76
2022/01/31 13:40:02;;;;;;;;;;;4.50;99.90;;;;;;4980368;28;20028;-76
2022/01/31 13:42:34;;;;;;;;;;;4.40;99.90;;;;;;4974379;28;19922;-76
2022/01/31 13:45:02;;;;;;;;;;;4.40;99.90;;;;;;4971083;28;19922;-75
2022/01/31 13:47:55;;;;;;;;;;;4.40;99.90;;;;;;4966676;28;20021;-76
2022/01/31 13:50:28;;;;;;;;;;;4.50;99.90;;;;;;4953746;28;19929;-75
2022/01/31 13:52:57;;;;;;;;;;;4.60;99.90;;;;;;5021699;28;19921;-75
2022/01/31 13:55:24;;;;;;;;;;;4.60;99.90;;;;;;4966262;28;20005;-74
2022/01/31 13:57:50;;;;;;;;;;;4.70;99.90;;;;;;4966060;28;19922;-75
2022/01/31 14:00:17;;;;;;;;;;;4.70;99.90;;;;;;4957087;28;19937;-75
2022/01/31 14:03:19;;;;;;;;;;;4.80;99.90;;;;;;4968215;28;19926;-75
2022/01/31 14:05:53;;;;;;;;;;;4.80;99.90;;;;;;4922246;28;19923;-75
2022/01/31 14:08:25;;;;;;;;;;;4.90;99.90;;;;;;4943045;28;19934;-75
2022/01/31 14:11:02;;;;;;;;;;;5.00;99.90;;;;;;4945520;28;19980;-75
2022/01/31 14:13:30;;;;;;;;;;;5.10;99.90;;;;;;4943993;28;20407;-75
2022/01/31 14:15:58;;;;;;;;;;;5.00;99.90;;;;;;4944819;28;20079;-75
2022/01/31 14:18:25;;;;;;;;;;;5.00;99.90;;;;;;4942552;28;19930;-75
2022/01/31 14:20:55;;;;;;;;;;;5.00;99.90;;;;;;4940438;28;19926;-75
2022/01/31 14:23:23;;;;;;;;;;;5.00;99.90;;;;;;4922101;28;19952;-75
2022/01/31 14:25:50;;;;;;;;;;;5.00;99.90;;;;;;4955049;28;19929;-75
2022/01/31 14:28:17;;;;;;;;;;;5.00;99.90;;;;;;4965846;28;19936;-75
2022/01/31 14:30:50;;;;;;;;;;;5.00;99.90;;;;;;4929221;28;19926;-74
2022/01/31 14:33:23;;;;;;;;;;;5.00;99.90;;;;;;4944124;28;20374;-75
2022/01/31 14:36:01;;;;;;;;;;;5.10;99.90;;;;;;4942843;28;19930;-75
2022/01/31 14:38:33;;;;;;;;;;;5.10;99.90;;;;;;4944506;28;20400;-76
2022/01/31 14:49:04;;;;;;;;;;;5.00;99.90;;;;;;4954200;28;20437;-76
2022/01/31 14:51:34;;;;;;;;;;;5.00;99.90;;;;;;4965030;28;19936;-76
2022/01/31 14:54:02;;;;;;;;;;;5.00;99.90;;;;;;4965746;28;19929;-76
2022/01/31 14:56:30;;;;;;;;;;;5.00;99.90;;;;;;4965004;28;19926;-76
2022/01/31 14:59:17;;;;;;;;;;;4.90;99.90;;;;;;4956943;28;19922;-76
2022/01/31 15:01:43;;;;;;;;;;;4.90;99.90;;;;;;4965075;28;19948;-75
2022/01/31 15:04:33;;;;;;;;;;;5.00;99.90;;;;;;4965814;28;19926;-76
2022/01/31 15:07:00;;;;;;;;;;;5.00;99.90;;;;;;4965182;28;19926;-76
2022/01/31 15:09:32;;;;;;;;;;;5.00;99.90;;;;;;4964237;28;19938;-75